createdAt,value
2019-04-23T02:23:01.437Z,65.90
2019-04-23T02:25:28.043Z,65.30
2019-04-23T02:38:31.849Z,65.00
2019-04-23T02:43:24.523Z,65.00
2019-04-23T02:46:05.550Z,64.60
2019-04-23T02:51:12.548Z,64.80
2019-04-23T02:56:21.539Z,64.10
2019-04-23T03:08:54.721Z,63.10
2019-04-23T03:14:02.448Z,63.10
2019-04-23T03:19:13.654Z,62.20
2019-04-23T03:21:57.675Z,62.90
2019-04-23T03:35:16.352Z,60.70
2019-04-23T03:37:30.907Z,60.80
2019-04-23T03:39:59.875Z,60.00
2019-04-23T03:49:55.564Z,59.70
2019-04-23T03:54:49.249Z,59.70
2019-04-23T03:57:40.067Z,60.20
2019-04-23T04:05:15.206Z,59.30
2019-04-23T04:10:19.285Z,57.60
2019-04-23T04:12:39.887Z,57.30
2019-04-23T04:15:33.195Z,57.80
2019-04-23T04:18:03.990Z,58.00
2019-04-23T04:23:07.834Z,58.40
2019-04-23T04:25:33.883Z,58.70
2019-04-23T04:28:12.117Z,58.70
2019-04-23T04:30:34.943Z,59.00
2019-04-23T04:33:19.644Z,59.00
2019-04-23T04:35:27.182Z,59.20
2019-04-23T04:38:25.654Z,58.50
2019-04-23T04:40:45.707Z,58.40
2019-04-23T04:46:04.784Z,57.60
2019-04-23T04:48:23.197Z,58.10
2019-04-23T04:51:00.140Z,57.30
2019-04-23T04:56:14.495Z,57.20
2019-04-23T04:58:43.399Z,58.00
2019-04-23T05:01:08.253Z,56.90
2019-04-23T05:06:16.340Z,56.10
2019-04-23T05:08:48.695Z,56.90
2019-04-23T05:11:19.650Z,55.80
2019-04-23T05:14:00.146Z,55.50
2019-04-23T05:19:06.740Z,54.70
2019-04-23T05:21:21.384Z,54.10
2019-04-23T05:23:54.565Z,53.40
2019-04-23T05:26:25.066Z,53.40
2019-04-23T05:31:27.641Z,54.50
2019-04-23T05:39:15.549Z,52.40
2019-04-23T05:44:15.920Z,51.70
2019-04-23T05:47:02.812Z,51.90
2019-04-23T05:49:22.411Z,52.70
2019-04-23T05:52:04.428Z,53.00
2019-04-23T05:56:54.106Z,51.60
2019-04-23T05:59:23.161Z,52.10
2019-04-23T06:04:32.456Z,51.70
2019-04-23T06:07:15.083Z,51.40
2019-04-23T06:09:30.394Z,50.90
2019-04-23T06:14:50.829Z,51.70
2019-04-23T06:19:44.330Z,50.60
2019-04-23T06:24:47.144Z,47.90
2019-04-23T06:27:20.214Z,48.80
2019-04-23T06:29:50.007Z,49.60
2019-04-23T06:32:25.544Z,49.70
2019-04-23T06:34:57.504Z,49.40
2019-04-23T06:37:36.762Z,49.60
2019-04-23T06:39:59.832Z,49.20
2019-04-23T06:42:37.638Z,48.60
2019-04-23T06:45:04.850Z,48.90
2019-04-23T06:48:01.896Z,48.30
2019-04-23T06:50:13.470Z,49.90
2019-04-23T06:52:43.707Z,50.40
2019-04-23T06:55:20.635Z,49.00
2019-04-23T06:57:49.269Z,49.00
2019-04-23T07:00:25.212Z,50.00
2019-04-23T07:02:54.065Z,49.50
2019-04-23T07:05:34.766Z,48.30
2019-04-23T07:08:04.327Z,48.60
2019-04-23T07:10:42.201Z,48.40
2019-04-23T07:13:10.897Z,48.50
2019-04-23T07:15:46.476Z,49.10
2019-04-23T07:18:11.558Z,48.70
2019-04-23T07:20:50.568Z,48.90
2019-04-23T07:23:30.051Z,49.20
2019-04-23T07:26:03.767Z,49.40
2019-04-23T07:28:38.698Z,48.80
2019-04-23T07:31:07.708Z,48.10
2019-04-23T07:33:38.272Z,48.40
2019-04-23T07:36:15.105Z,48.70
2019-04-23T07:41:19.934Z,47.90
2019-04-23T07:43:49.562Z,48.00
2019-04-23T07:46:29.769Z,48.70
2019-04-23T07:48:47.982Z,47.70
2019-04-23T07:51:19.804Z,48.10
2019-04-23T07:54:01.279Z,49.20
2019-04-23T07:56:27.989Z,49.00
2019-04-23T07:59:07.406Z,48.30
2019-04-23T08:01:26.770Z,48.90
2019-04-23T08:04:04.577Z,49.30
2019-04-23T08:06:41.187Z,48.80
2019-04-23T08:09:10.864Z,49.80
2019-04-23T08:11:40.386Z,48.80
2019-04-23T08:14:08.181Z,49.40
2019-04-23T08:16:40.534Z,48.50
2019-04-23T08:19:17.021Z,49.60
2019-04-23T08:21:58.193Z,49.30
2019-04-23T08:24:35.170Z,48.90
2019-04-23T08:26:59.571Z,48.20
2019-04-23T08:29:28.041Z,48.00
2019-04-23T08:32:09.083Z,48.60
2019-04-23T08:45:05.087Z,48.60
2019-04-23T08:47:31.689Z,48.70
2019-04-23T08:50:02.223Z,48.80
2019-04-23T08:52:30.050Z,49.20
2019-04-23T08:55:22.743Z,49.00
2019-04-23T08:57:36.930Z,49.30
2019-04-23T09:00:14.753Z,48.90
2019-04-23T09:05:28.531Z,49.50
2019-04-23T09:10:26.541Z,49.90
2019-04-23T09:13:08.746Z,49.60
2019-04-23T09:15:31.479Z,50.50
2019-04-23T09:18:04.357Z,50.30
2019-04-23T09:20:27.688Z,51.30
2019-04-23T09:23:06.159Z,51.30
2019-04-23T09:25:44.515Z,51.10
2019-04-23T09:28:23.864Z,51.60
2019-04-23T09:30:49.235Z,51.50
2019-04-23T09:33:28.851Z,51.80
2019-04-23T09:35:52.719Z,51.50
2019-04-23T09:38:29.933Z,52.00
2019-04-23T09:41:13.053Z,51.90
2019-04-23T09:43:33.194Z,52.30
2019-04-23T09:46:11.999Z,51.60
2019-04-23T09:48:47.127Z,51.40
2019-04-23T09:51:10.147Z,51.50
2019-04-23T09:53:48.654Z,51.50
2019-04-23T09:56:14.456Z,51.70
2019-04-23T09:58:52.145Z,51.60
2019-04-23T10:01:26.016Z,50.90
2019-04-23T10:03:46.267Z,50.40
2019-04-23T10:06:14.530Z,50.70
2019-04-23T10:08:46.530Z,50.90
2019-04-23T10:11:13.589Z,50.80
2019-04-23T10:13:45.047Z,50.90
2019-04-23T10:16:19.468Z,51.00
2019-04-23T10:18:49.118Z,50.90
2019-04-23T10:21:21.354Z,50.40
2019-04-23T10:23:52.318Z,50.30
2019-04-23T10:26:24.050Z,49.40
2019-04-23T10:28:57.992Z,50.30
2019-04-23T10:31:28.794Z,50.40
2019-04-23T10:34:00.285Z,50.40
2019-04-23T10:36:32.573Z,50.90
2019-04-23T10:39:10.705Z,51.20
2019-04-23T10:41:37.938Z,51.40
2019-04-23T10:44:10.894Z,51.60
2019-04-23T10:47:11.528Z,51.90
2019-04-23T10:50:00.987Z,51.60
2019-04-23T10:52:20.511Z,51.80
2019-04-23T10:54:45.703Z,52.40
2019-04-23T11:00:09.168Z,52.60
2019-04-23T11:07:31.360Z,53.00
2019-04-23T11:10:11.221Z,53.20
2019-04-23T11:12:42.492Z,53.50
2019-04-23T11:15:22.830Z,53.70
2019-04-23T11:17:46.366Z,53.80
2019-04-23T11:22:57.187Z,54.30
2019-04-23T11:30:33.454Z,55.00
2019-04-23T11:33:10.223Z,55.40
2019-04-23T11:35:39.559Z,55.60
2019-04-23T11:40:32.797Z,56.10
2019-04-23T11:43:14.386Z,56.30
2019-04-23T11:53:27.811Z,57.50
2019-04-23T11:56:16.098Z,57.80
2019-04-23T12:01:11.843Z,58.40
2019-04-23T12:03:37.698Z,58.80
2019-04-23T12:08:43.214Z,59.10
2019-04-23T12:13:54.489Z,60.20
2019-04-23T12:16:31.972Z,60.70
2019-04-23T12:19:12.592Z,60.30
2019-04-23T12:21:28.423Z,60.30
2019-04-23T12:24:12.238Z,60.60
2019-04-23T12:26:35.444Z,61.60
2019-04-23T12:29:29.220Z,61.20
2019-04-23T12:31:40.022Z,61.10
2019-04-23T12:34:14.215Z,61.10
2019-04-23T12:36:52.728Z,61.00
2019-04-23T12:41:52.835Z,61.40
2019-04-23T12:44:22.085Z,61.80
2019-04-23T12:46:57.726Z,62.40
2019-04-23T12:52:02.413Z,61.80
2019-04-23T12:54:42.873Z,61.90
2019-04-23T12:57:12.641Z,62.10
2019-04-23T12:59:41.311Z,62.20
2019-04-23T13:02:15.515Z,62.10
2019-04-23T13:04:48.439Z,62.20
2019-04-23T13:07:17.692Z,62.30
2019-04-23T13:10:01.577Z,62.40
2019-04-23T13:12:33.251Z,62.20
2019-04-23T13:14:59.464Z,62.40
2019-04-23T13:17:46.944Z,62.30
2019-04-23T13:25:01.992Z,62.70
2019-04-23T13:27:38.745Z,62.90
2019-04-23T13:30:14.408Z,62.90
2019-04-23T13:32:48.723Z,63.20
2019-04-23T13:35:28.019Z,63.70
2019-04-23T13:37:54.810Z,64.40
2019-04-23T13:40:27.730Z,63.90
2019-04-23T13:42:52.328Z,63.90
2019-04-23T13:45:47.487Z,64.60
2019-04-23T13:50:37.118Z,66.10
2019-04-23T13:55:27.802Z,65.90
2019-04-23T14:01:00.665Z,66.70
2019-04-23T14:03:13.704Z,67.20
2019-04-23T14:05:57.405Z,67.10
2019-04-23T14:08:45.209Z,67.00
2019-04-23T14:10:57.294Z,67.00
2019-04-23T14:13:40.518Z,66.70
2019-04-23T14:16:04.532Z,66.50
2019-04-23T14:21:08.174Z,68.00
2019-04-23T14:23:52.694Z,67.40
2019-04-23T14:26:15.898Z,67.60
2019-04-23T14:31:13.096Z,66.90
2019-04-23T14:33:52.658Z,66.60
2019-04-23T14:36:19.480Z,67.20
2019-04-23T14:38:52.758Z,67.10
2019-04-23T14:44:02.063Z,67.10
2019-04-23T14:54:23.553Z,68.20
2019-04-23T14:56:51.451Z,68.20
2019-04-23T15:01:54.897Z,68.70
2019-04-23T15:04:11.084Z,68.80
2019-04-23T15:06:57.440Z,69.50
2019-04-23T15:12:04.885Z,70.70
2019-04-23T15:14:23.323Z,71.70
2019-04-23T15:17:00.083Z,72.20
2019-04-23T15:19:38.074Z,72.50
2019-04-23T15:29:27.931Z,74.10
2019-04-23T15:34:47.281Z,74.80
2019-04-23T15:39:55.422Z,75.30
2019-04-23T15:42:26.512Z,74.60
2019-04-23T15:44:55.340Z,75.50
2019-04-23T15:52:39.495Z,76.00
2019-04-23T15:55:01.228Z,76.00
2019-04-23T15:57:56.234Z,75.60
2019-04-23T16:00:05.502Z,75.60
2019-04-23T16:02:12.763Z,75.30
2019-04-23T16:04:44.021Z,74.90
2019-04-23T16:07:31.373Z,74.40
2019-04-23T16:10:19.096Z,74.30
2019-04-23T16:12:54.684Z,74.40
2019-04-23T16:15:35.466Z,74.50
2019-04-23T16:17:55.824Z,75.80
2019-04-23T16:20:33.462Z,75.30
2019-04-23T16:22:50.680Z,75.20
2019-04-23T16:25:45.668Z,75.70
2019-04-23T16:28:02.193Z,75.80
2019-04-23T16:30:31.341Z,75.80
2019-04-23T16:33:17.183Z,76.40
2019-04-23T16:35:56.713Z,76.10
2019-04-23T16:40:54.793Z,75.90
2019-04-23T16:43:18.436Z,76.50
2019-04-23T16:48:55.331Z,77.40
2019-04-23T16:56:13.387Z,77.70
2019-04-23T17:11:18.851Z,79.20
2019-04-23T17:13:55.417Z,78.40
2019-04-23T17:19:08.872Z,77.40
2019-04-23T17:21:32.626Z,77.60
2019-04-23T17:24:09.672Z,77.50
2019-04-23T17:26:32.243Z,77.70
2019-04-23T17:29:06.535Z,78.20
2019-04-23T17:34:17.615Z,79.60
2019-04-23T17:39:21.223Z,79.80
2019-04-23T17:42:18.136Z,80.60
2019-04-23T17:44:47.090Z,79.80
2019-04-23T17:46:58.873Z,79.10
2019-04-23T17:49:55.654Z,79.60
2019-04-23T17:52:05.054Z,80.00
2019-04-23T17:54:30.900Z,80.30
2019-04-23T18:00:01.027Z,81.60
2019-04-23T18:02:41.956Z,81.40
2019-04-23T18:07:32.247Z,81.50
2019-04-23T18:09:58.367Z,80.80
2019-04-23T18:12:31.228Z,80.50
2019-04-23T18:15:00.739Z,80.60
2019-04-23T18:20:06.648Z,82.70
2019-04-23T18:22:37.175Z,82.20
2019-04-23T18:25:08.229Z,82.80
2019-04-23T18:27:42.467Z,81.80
2019-04-23T18:30:15.747Z,81.70
2019-04-23T18:33:18.265Z,82.40
2019-04-23T18:35:28.272Z,82.10
2019-04-23T18:40:28.751Z,82.10
2019-04-23T18:43:07.424Z,82.10
2019-04-23T18:45:38.770Z,81.80
2019-04-23T18:48:23.366Z,82.00
2019-04-23T18:50:48.174Z,82.40
2019-04-23T18:53:11.178Z,82.80
2019-04-23T18:55:58.806Z,83.40
2019-04-23T18:58:09.574Z,83.60
2019-04-23T19:03:30.586Z,82.70
2019-04-23T19:06:10.492Z,82.50
2019-04-23T19:08:44.662Z,83.60
2019-04-23T19:10:57.920Z,83.20
2019-04-23T19:13:41.576Z,83.40
2019-04-23T19:15:53.626Z,83.00
2019-04-23T19:18:45.164Z,83.00
2019-04-23T19:21:21.556Z,82.80
2019-04-23T19:26:15.816Z,84.70
2019-04-23T19:29:05.565Z,84.00
2019-04-23T19:31:27.679Z,83.80
2019-04-23T19:34:02.964Z,83.80
2019-04-23T19:36:26.530Z,83.90
2019-04-23T19:39:03.573Z,83.50
2019-04-23T19:41:39.215Z,83.90
2019-04-23T19:44:01.400Z,84.40
2019-04-23T19:46:49.098Z,84.70
2019-04-23T19:56:51.384Z,87.70
2019-04-23T19:59:25.333Z,88.40
2019-04-23T20:01:58.631Z,88.40
2019-04-23T20:04:23.638Z,87.60
2019-04-23T20:12:01.084Z,86.70
2019-04-23T20:14:56.464Z,86.80
2019-04-23T20:17:23.138Z,87.40
2019-04-23T20:19:48.613Z,87.60
2019-04-23T20:22:16.721Z,86.60
2019-04-23T20:25:04.177Z,86.50
2019-04-23T20:30:07.399Z,86.90
2019-04-23T20:37:42.793Z,86.30
2019-04-23T20:42:48.252Z,86.90
2019-04-23T20:44:58.875Z,87.30
2019-04-23T20:47:30.659Z,87.00
2019-04-23T20:49:51.862Z,87.20
2019-04-23T20:52:33.887Z,87.40
2019-04-23T20:55:06.749Z,86.80
2019-04-23T20:57:45.412Z,87.20
2019-04-23T21:00:12.303Z,87.40
2019-04-23T21:05:21.705Z,88.10
2019-04-23T21:15:42.148Z,87.50
2019-04-23T21:18:06.461Z,87.90
2019-04-23T21:20:50.011Z,87.70
2019-04-23T21:23:21.435Z,87.40
2019-04-23T21:36:10.765Z,88.80
2019-04-23T21:38:39.507Z,89.30
2019-04-23T21:43:47.440Z,89.80
2019-04-23T21:46:15.216Z,90.10
2019-04-23T21:48:53.091Z,90.90
2019-04-23T21:51:22.933Z,91.70
2019-04-23T21:53:46.348Z,91.70
2019-04-23T21:56:15.231Z,91.70
2019-04-23T21:59:03.980Z,91.50
2019-04-23T22:01:32.134Z,91.20
2019-04-23T22:04:09.113Z,91.40
2019-04-23T22:06:35.542Z,91.20
2019-04-23T22:14:13.107Z,90.60
2019-04-23T22:19:27.583Z,91.10
2019-04-23T22:24:16.588Z,91.10
2019-04-23T22:26:48.328Z,90.80
2019-04-23T22:31:51.974Z,90.20
2019-04-23T22:37:07.951Z,89.60
2019-04-23T22:39:31.753Z,89.40
2019-04-23T22:42:03.202Z,89.30
2019-04-23T22:44:42.250Z,90.00
2019-04-23T22:49:45.167Z,89.30
2019-04-23T22:52:16.552Z,90.00
2019-04-23T22:54:51.417Z,89.60
2019-04-23T22:57:09.135Z,89.50
2019-04-23T23:00:04.494Z,90.00
2019-04-23T23:02:30.345Z,90.10
2019-04-23T23:05:09.631Z,90.30
2019-04-23T23:07:41.511Z,90.10
2019-04-23T23:10:08.786Z,90.10
2019-04-23T23:12:44.911Z,90.10
2019-04-23T23:15:10.472Z,90.10
2019-04-23T23:17:52.624Z,90.10
2019-04-23T23:20:20.867Z,90.30
2019-04-23T23:25:23.845Z,90.40
2019-04-23T23:32:55.670Z,90.00
2019-04-23T23:38:00.564Z,89.30
2019-04-23T23:43:16.079Z,88.40
2019-04-23T23:45:44.909Z,88.20
2019-04-23T23:48:13.092Z,88.10
2019-04-23T23:53:23.343Z,87.60
2019-04-23T23:55:58.253Z,86.80
2019-04-23T23:58:23.475Z,86.60
